sensor_id;sensor_type;location;lat;lon;timestamp;P1;durP1;ratioP1;P2;durP2;ratioP2
4806;SDS011;2417;52.482;13.432;2023-02-28T00:00:25;8.90;;;4.03;;
4806;SDS011;2417;52.482;13.432;2023-02-28T00:02:53;9.77;;;4.90;;
4806;SDS011;2417;52.482;13.432;2023-02-28T00:05:21;9.80;;;3.97;;
4806;SDS011;2417;52.482;13.432;2023-02-28T00:07:51;5.90;;;3.30;;
4806;SDS011;2417;52.482;13.432;2023-02-28T00:10:20;7.97;;;4.27;;
4806;SDS011;2417;52.482;13.432;2023-02-28T00:12:49;7.30;;;4.03;;
4806;SDS011;2417;52.482;13.432;2023-02-28T00:15:17;9.30;;;4.60;;
4806;SDS011;2417;52.482;13.432;2023-02-28T00:17:45;7.07;;;3.70;;
4806;SDS011;2417;52.482;13.432;2023-02-28T00:20:13;9.53;;;4.97;;
4806;SDS011;2417;52.482;13.432;2023-02-28T00:22:41;6.60;;;3.57;;
4806;SDS011;2417;52.482;13.432;2023-02-28T00:25:11;9.40;;;4.90;;
4806;SDS011;2417;52.482;13.432;2023-02-28T00:27:40;7.93;;;3.87;;
4806;SDS011;2417;52.482;13.432;2023-02-28T00:30:08;8.63;;;3.50;;
4806;SDS011;2417;52.482;13.432;2023-02-28T00:32:37;11.70;;;4.73;;
4806;SDS011;2417;52.482;13.432;2023-02-28T00:35:06;7.07;;;3.90;;
4806;SDS011;2417;52.482;13.432;2023-02-28T00:37:34;8.17;;;4.30;;
4806;SDS011;2417;52.482;13.432;2023-02-28T00:40:02;9.90;;;4.73;;
4806;SDS011;2417;52.482;13.432;2023-02-28T00:42:33;8.50;;;4.73;;
4806;SDS011;2417;52.482;13.432;2023-02-28T00:45:03;11.00;;;4.60;;
4806;SDS011;2417;52.482;13.432;2023-02-28T00:47:31;11.83;;;4.77;;
4806;SDS011;2417;52.482;13.432;2023-02-28T00:50:00;10.17;;;5.10;;
4806;SDS011;2417;52.482;13.432;2023-02-28T00:52:27;10.63;;;5.97;;
4806;SDS011;2417;52.482;13.432;2023-02-28T00:54:56;7.73;;;4.60;;
4806;SDS011;2417;52.482;13.432;2023-02-28T00:57:23;9.23;;;4.80;;
4806;SDS011;2417;52.482;13.432;2023-02-28T00:59:53;18.27;;;8.40;;
4806;SDS011;2417;52.482;13.432;2023-02-28T01:02:22;7.07;;;4.57;;
4806;SDS011;2417;52.482;13.432;2023-02-28T01:04:51;10.57;;;5.77;;
4806;SDS011;2417;52.482;13.432;2023-02-28T01:07:20;10.90;;;4.70;;
4806;SDS011;2417;52.482;13.432;2023-02-28T01:09:48;9.80;;;4.77;;
4806;SDS011;2417;52.482;13.432;2023-02-28T01:12:16;10.33;;;4.20;;
4806;SDS011;2417;52.482;13.432;2023-02-28T01:14:46;9.50;;;4.97;;
4806;SDS011;2417;52.482;13.432;2023-02-28T01:17:15;14.93;;;4.70;;
4806;SDS011;2417;52.482;13.432;2023-02-28T01:19:43;11.20;;;5.10;;
4806;SDS011;2417;52.482;13.432;2023-02-28T01:22:10;7.80;;;4.33;;
4806;SDS011;2417;52.482;13.432;2023-02-28T01:24:40;12.20;;;4.80;;
4806;SDS011;2417;52.482;13.432;2023-02-28T01:27:11;10.03;;;5.00;;
4806;SDS011;2417;52.482;13.432;2023-02-28T01:29:39;12.67;;;4.67;;
4806;SDS011;2417;52.482;13.432;2023-02-28T01:32:08;12.00;;;6.17;;
4806;SDS011;2417;52.482;13.432;2023-02-28T01:34:37;14.73;;;7.57;;
4806;SDS011;2417;52.482;13.432;2023-02-28T01:37:06;16.70;;;7.80;;
4806;SDS011;2417;52.482;13.432;2023-02-28T01:39:34;12.80;;;5.83;;
4806;SDS011;2417;52.482;13.432;2023-02-28T01:42:02;12.60;;;4.93;;
4806;SDS011;2417;52.482;13.432;2023-02-28T01:47:19;7.73;;;4.47;;
4806;SDS011;2417;52.482;13.432;2023-02-28T01:49:48;11.77;;;6.07;;
4806;SDS011;2417;52.482;13.432;2023-02-28T01:52:17;10.40;;;4.70;;
4806;SDS011;2417;52.482;13.432;2023-02-28T01:54:47;11.10;;;5.53;;
4806;SDS011;2417;52.482;13.432;2023-02-28T01:57:18;12.43;;;5.83;;
4806;SDS011;2417;52.482;13.432;2023-02-28T01:59:48;9.50;;;5.07;;
4806;SDS011;2417;52.482;13.432;2023-02-28T02:02:18;11.13;;;5.73;;
4806;SDS011;2417;52.482;13.432;2023-02-28T02:04:50;12.80;;;6.70;;
4806;SDS011;2417;52.482;13.432;2023-02-28T02:07:18;14.60;;;5.23;;
4806;SDS011;2417;52.482;13.432;2023-02-28T02:09:47;10.70;;;5.70;;
4806;SDS011;2417;52.482;13.432;2023-02-28T02:12:18;14.90;;;6.20;;
4806;SDS011;2417;52.482;13.432;2023-02-28T02:14:53;10.90;;;5.80;;
4806;SDS011;2417;52.482;13.432;2023-02-28T02:17:25;8.40;;;4.73;;
4806;SDS011;2417;52.482;13.432;2023-02-28T02:25:38;9.67;;;5.40;;
4806;SDS011;2417;52.482;13.432;2023-02-28T02:28:18;11.90;;;6.00;;
4806;SDS011;2417;52.482;13.432;2023-02-28T02:30:53;12.07;;;5.77;;
4806;SDS011;2417;52.482;13.432;2023-02-28T02:36:15;11.27;;;6.23;;
4806;SDS011;2417;52.482;13.432;2023-02-28T02:38:46;14.90;;;6.40;;
4806;SDS011;2417;52.482;13.432;2023-02-28T02:41:17;8.80;;;4.97;;
4806;SDS011;2417;52.482;13.432;2023-02-28T02:43:46;10.90;;;6.00;;
4806;SDS011;2417;52.482;13.432;2023-02-28T02:46:17;11.20;;;6.20;;
4806;SDS011;2417;52.482;13.432;2023-02-28T02:48:46;11.93;;;5.80;;
4806;SDS011;2417;52.482;13.432;2023-02-28T02:51:15;11.20;;;6.20;;
4806;SDS011;2417;52.482;13.432;2023-02-28T02:53:46;14.60;;;6.70;;
4806;SDS011;2417;52.482;13.432;2023-02-28T02:56:16;11.00;;;5.80;;
4806;SDS011;2417;52.482;13.432;2023-02-28T02:58:46;10.60;;;5.17;;
4806;SDS011;2417;52.482;13.432;2023-02-28T03:01:17;11.80;;;5.90;;
4806;SDS011;2417;52.482;13.432;2023-02-28T03:03:56;11.70;;;6.07;;
4806;SDS011;2417;52.482;13.432;2023-02-28T03:06:26;15.63;;;6.70;;
4806;SDS011;2417;52.482;13.432;2023-02-28T03:08:54;11.27;;;5.67;;
4806;SDS011;2417;52.482;13.432;2023-02-28T03:11:22;15.97;;;7.47;;
4806;SDS011;2417;52.482;13.432;2023-02-28T03:16:42;13.53;;;6.63;;
4806;SDS011;2417;52.482;13.432;2023-02-28T03:19:22;13.67;;;6.67;;
4806;SDS011;2417;52.482;13.432;2023-02-28T03:21:58;15.00;;;6.00;;
4806;SDS011;2417;52.482;13.432;2023-02-28T03:24:30;9.70;;;5.37;;
4806;SDS011;2417;52.482;13.432;2023-02-28T03:27:03;10.93;;;5.43;;
4806;SDS011;2417;52.482;13.432;2023-02-28T03:29:33;10.00;;;5.30;;
4806;SDS011;2417;52.482;13.432;2023-02-28T03:32:03;12.20;;;6.47;;
4806;SDS011;2417;52.482;13.432;2023-02-28T03:34:33;11.57;;;5.50;;
4806;SDS011;2417;52.482;13.432;2023-02-28T03:37:04;10.53;;;5.37;;
4806;SDS011;2417;52.482;13.432;2023-02-28T03:39:34;10.90;;;5.20;;
4806;SDS011;2417;52.482;13.432;2023-02-28T03:42:04;14.17;;;6.73;;
4806;SDS011;2417;52.482;13.432;2023-02-28T03:44:34;11.97;;;5.53;;
4806;SDS011;2417;52.482;13.432;2023-02-28T03:47:03;12.93;;;5.63;;
4806;SDS011;2417;52.482;13.432;2023-02-28T03:49:32;12.43;;;6.53;;
4806;SDS011;2417;52.482;13.432;2023-02-28T03:52:05;11.40;;;6.07;;
4806;SDS011;2417;52.482;13.432;2023-02-28T03:54:35;12.50;;;6.27;;
4806;SDS011;2417;52.482;13.432;2023-02-28T03:57:04;10.73;;;5.90;;
4806;SDS011;2417;52.482;13.432;2023-02-28T03:59:36;16.40;;;7.67;;
4806;SDS011;2417;52.482;13.432;2023-02-28T04:02:05;11.63;;;5.60;;
4806;SDS011;2417;52.482;13.432;2023-02-28T04:04:33;12.57;;;6.43;;
4806;SDS011;2417;52.482;13.432;2023-02-28T04:07:01;9.80;;;5.90;;
4806;SDS011;2417;52.482;13.432;2023-02-28T04:09:31;12.53;;;7.00;;
4806;SDS011;2417;52.482;13.432;2023-02-28T04:11:59;13.33;;;5.93;;
4806;SDS011;2417;52.482;13.432;2023-02-28T04:14:27;13.30;;;6.47;;
4806;SDS011;2417;52.482;13.432;2023-02-28T04:16:55;22.00;;;8.77;;
4806;SDS011;2417;52.482;13.432;2023-02-28T04:19:23;17.03;;;6.07;;
4806;SDS011;2417;52.482;13.432;2023-02-28T04:21:51;11.10;;;6.30;;
4806;SDS011;2417;52.482;13.432;2023-02-28T04:24:20;11.10;;;6.03;;
4806;SDS011;2417;52.482;13.432;2023-02-28T04:26:50;12.23;;;5.90;;
4806;SDS011;2417;52.482;13.432;2023-02-28T04:29:19;13.10;;;6.40;;
4806;SDS011;2417;52.482;13.432;2023-02-28T04:31:47;14.63;;;7.80;;
4806;SDS011;2417;52.482;13.432;2023-02-28T04:34:15;11.40;;;6.10;;
4806;SDS011;2417;52.482;13.432;2023-02-28T04:36:43;12.33;;;6.37;;
4806;SDS011;2417;52.482;13.432;2023-02-28T04:39:12;11.77;;;6.23;;
4806;SDS011;2417;52.482;13.432;2023-02-28T04:41:40;12.47;;;6.57;;
4806;SDS011;2417;52.482;13.432;2023-02-28T04:44:09;15.10;;;7.57;;
4806;SDS011;2417;52.482;13.432;2023-02-28T04:46:37;13.13;;;6.67;;
4806;SDS011;2417;52.482;13.432;2023-02-28T04:49:05;13.13;;;7.20;;
4806;SDS011;2417;52.482;13.432;2023-02-28T04:51:33;11.47;;;6.80;;
4806;SDS011;2417;52.482;13.432;2023-02-28T04:54:01;11.87;;;6.40;;
4806;SDS011;2417;52.482;13.432;2023-02-28T04:56:29;11.70;;;6.17;;
4806;SDS011;2417;52.482;13.432;2023-02-28T04:58:57;13.60;;;6.40;;
4806;SDS011;2417;52.482;13.432;2023-02-28T05:01:27;13.47;;;6.47;;
4806;SDS011;2417;52.482;13.432;2023-02-28T05:03:57;12.30;;;6.50;;
4806;SDS011;2417;52.482;13.432;2023-02-28T05:06:26;13.53;;;6.37;;
4806;SDS011;2417;52.482;13.432;2023-02-28T05:08:54;12.47;;;6.30;;
4806;SDS011;2417;52.482;13.432;2023-02-28T05:11:24;14.03;;;7.83;;
4806;SDS011;2417;52.482;13.432;2023-02-28T05:13:53;11.67;;;5.93;;
4806;SDS011;2417;52.482;13.432;2023-02-28T05:16:21;13.13;;;6.30;;
4806;SDS011;2417;52.482;13.432;2023-02-28T05:18:51;13.60;;;7.23;;
4806;SDS011;2417;52.482;13.432;2023-02-28T05:21:24;12.47;;;6.07;;
4806;SDS011;2417;52.482;13.432;2023-02-28T05:23:53;14.60;;;6.60;;
4806;SDS011;2417;52.482;13.432;2023-02-28T05:26:21;11.07;;;6.10;;
4806;SDS011;2417;52.482;13.432;2023-02-28T05:28:49;17.17;;;6.33;;
4806;SDS011;2417;52.482;13.432;2023-02-28T05:31:17;10.67;;;5.73;;
4806;SDS011;2417;52.482;13.432;2023-02-28T05:33:45;12.33;;;6.07;;
4806;SDS011;2417;52.482;13.432;2023-02-28T05:36:14;10.83;;;5.97;;
4806;SDS011;2417;52.482;13.432;2023-02-28T05:38:42;10.20;;;5.87;;
4806;SDS011;2417;52.482;13.432;2023-02-28T05:41:10;11.73;;;6.27;;
4806;SDS011;2417;52.482;13.432;2023-02-28T05:43:39;13.03;;;7.07;;
4806;SDS011;2417;52.482;13.432;2023-02-28T05:46:08;14.07;;;6.87;;
4806;SDS011;2417;52.482;13.432;2023-02-28T05:48:36;11.90;;;6.43;;
4806;SDS011;2417;52.482;13.432;2023-02-28T05:51:05;14.70;;;7.73;;
4806;SDS011;2417;52.482;13.432;2023-02-28T05:53:35;13.40;;;7.03;;
4806;SDS011;2417;52.482;13.432;2023-02-28T05:56:03;13.60;;;7.27;;
4806;SDS011;2417;52.482;13.432;2023-02-28T05:58:31;14.80;;;7.00;;
4806;SDS011;2417;52.482;13.432;2023-02-28T06:01:00;12.43;;;6.57;;
4806;SDS011;2417;52.482;13.432;2023-02-28T06:03:28;19.07;;;7.80;;
4806;SDS011;2417;52.482;13.432;2023-02-28T06:05:56;13.63;;;7.70;;
4806;SDS011;2417;52.482;13.432;2023-02-28T06:08:23;14.97;;;7.47;;
4806;SDS011;2417;52.482;13.432;2023-02-28T06:10:53;10.47;;;6.10;;
4806;SDS011;2417;52.482;13.432;2023-02-28T06:13:24;15.60;;;7.20;;
4806;SDS011;2417;52.482;13.432;2023-02-28T06:15:51;14.77;;;6.83;;
4806;SDS011;2417;52.482;13.432;2023-02-28T06:18:19;15.90;;;8.30;;
4806;SDS011;2417;52.482;13.432;2023-02-28T06:20:51;16.23;;;8.03;;
4806;SDS011;2417;52.482;13.432;2023-02-28T06:23:20;18.40;;;8.10;;
4806;SDS011;2417;52.482;13.432;2023-02-28T06:25:48;17.27;;;8.50;;
4806;SDS011;2417;52.482;13.432;2023-02-28T06:28:17;22.73;;;7.63;;
4806;SDS011;2417;52.482;13.432;2023-02-28T06:30:47;12.60;;;6.80;;
4806;SDS011;2417;52.482;13.432;2023-02-28T06:33:15;15.23;;;7.97;;
4806;SDS011;2417;52.482;13.432;2023-02-28T06:35:43;19.07;;;9.50;;
4806;SDS011;2417;52.482;13.432;2023-02-28T06:38:11;20.40;;;8.23;;
4806;SDS011;2417;52.482;13.432;2023-02-28T06:40:39;16.50;;;7.53;;
4806;SDS011;2417;52.482;13.432;2023-02-28T06:43:07;16.77;;;8.03;;
4806;SDS011;2417;52.482;13.432;2023-02-28T06:45:36;15.23;;;7.70;;
4806;SDS011;2417;52.482;13.432;2023-02-28T06:48:04;19.80;;;8.40;;
4806;SDS011;2417;52.482;13.432;2023-02-28T06:50:32;17.53;;;8.77;;
4806;SDS011;2417;52.482;13.432;2023-02-28T06:53:00;20.07;;;8.90;;
4806;SDS011;2417;52.482;13.432;2023-02-28T06:55:28;25.90;;;10.40;;
4806;SDS011;2417;52.482;13.432;2023-02-28T06:57:56;23.33;;;11.57;;
4806;SDS011;2417;52.482;13.432;2023-02-28T07:00:24;95.63;;;39.07;;
4806;SDS011;2417;52.482;13.432;2023-02-28T07:02:53;35.70;;;16.40;;
4806;SDS011;2417;52.482;13.432;2023-02-28T07:05:22;38.13;;;15.67;;
4806;SDS011;2417;52.482;13.432;2023-02-28T07:07:50;27.90;;;13.93;;
4806;SDS011;2417;52.482;13.432;2023-02-28T07:10:19;24.40;;;11.40;;
4806;SDS011;2417;52.482;13.432;2023-02-28T07:12:48;23.53;;;11.10;;
4806;SDS011;2417;52.482;13.432;2023-02-28T07:15:15;20.93;;;10.47;;
4806;SDS011;2417;52.482;13.432;2023-02-28T07:17:43;21.40;;;9.80;;
4806;SDS011;2417;52.482;13.432;2023-02-28T07:20:13;21.63;;;10.10;;
4806;SDS011;2417;52.482;13.432;2023-02-28T07:22:41;17.63;;;8.93;;
4806;SDS011;2417;52.482;13.432;2023-02-28T07:25:09;19.27;;;7.33;;
4806;SDS011;2417;52.482;13.432;2023-02-28T07:27:36;19.10;;;7.20;;
4806;SDS011;2417;52.482;13.432;2023-02-28T07:30:05;16.97;;;7.53;;
4806;SDS011;2417;52.482;13.432;2023-02-28T07:32:33;22.70;;;8.10;;
4806;SDS011;2417;52.482;13.432;2023-02-28T07:35:05;16.33;;;6.70;;
4806;SDS011;2417;52.482;13.432;2023-02-28T07:37:34;13.33;;;6.40;;
4806;SDS011;2417;52.482;13.432;2023-02-28T07:40:03;12.57;;;7.00;;
4806;SDS011;2417;52.482;13.432;2023-02-28T07:42:34;9.80;;;5.13;;
4806;SDS011;2417;52.482;13.432;2023-02-28T07:45:03;20.53;;;9.00;;
4806;SDS011;2417;52.482;13.432;2023-02-28T07:47:31;14.40;;;7.10;;
4806;SDS011;2417;52.482;13.432;2023-02-28T07:49:59;19.90;;;7.13;;
4806;SDS011;2417;52.482;13.432;2023-02-28T07:52:27;14.30;;;6.90;;
4806;SDS011;2417;52.482;13.432;2023-02-28T07:54:56;13.23;;;7.50;;
4806;SDS011;2417;52.482;13.432;2023-02-28T07:57:24;16.67;;;6.50;;
4806;SDS011;2417;52.482;13.432;2023-02-28T07:59:52;17.83;;;5.47;;
4806;SDS011;2417;52.482;13.432;2023-02-28T08:02:20;10.87;;;5.20;;
4806;SDS011;2417;52.482;13.432;2023-02-28T08:04:48;13.90;;;4.80;;
4806;SDS011;2417;52.482;13.432;2023-02-28T08:07:17;13.17;;;4.90;;
4806;SDS011;2417;52.482;13.432;2023-02-28T08:09:45;11.93;;;4.70;;
4806;SDS011;2417;52.482;13.432;2023-02-28T08:12:14;13.33;;;4.40;;
4806;SDS011;2417;52.482;13.432;2023-02-28T08:14:42;12.47;;;4.20;;
4806;SDS011;2417;52.482;13.432;2023-02-28T08:17:10;11.70;;;4.93;;
4806;SDS011;2417;52.482;13.432;2023-02-28T08:19:38;17.50;;;6.10;;
4806;SDS011;2417;52.482;13.432;2023-02-28T08:22:05;24.10;;;11.00;;
4806;SDS011;2417;52.482;13.432;2023-02-28T08:24:34;11.50;;;4.90;;
4806;SDS011;2417;52.482;13.432;2023-02-28T08:27:01;18.33;;;6.97;;
4806;SDS011;2417;52.482;13.432;2023-02-28T08:29:30;11.20;;;4.90;;
4806;SDS011;2417;52.482;13.432;2023-02-28T08:31:58;13.03;;;5.10;;
4806;SDS011;2417;52.482;13.432;2023-02-28T08:34:26;13.37;;;5.60;;
4806;SDS011;2417;52.482;13.432;2023-02-28T08:36:54;23.80;;;9.67;;
4806;SDS011;2417;52.482;13.432;2023-02-28T08:39:22;12.00;;;5.03;;
4806;SDS011;2417;52.482;13.432;2023-02-28T08:41:49;10.80;;;4.60;;
4806;SDS011;2417;52.482;13.432;2023-02-28T08:44:33;11.77;;;4.00;;
4806;SDS011;2417;52.482;13.432;2023-02-28T08:47:02;17.70;;;5.40;;
4806;SDS011;2417;52.482;13.432;2023-02-28T08:49:29;10.23;;;4.83;;
4806;SDS011;2417;52.482;13.432;2023-02-28T08:51:57;9.27;;;3.90;;
4806;SDS011;2417;52.482;13.432;2023-02-28T08:54:25;13.60;;;5.53;;
4806;SDS011;2417;52.482;13.432;2023-02-28T08:56:55;5.00;;;2.10;;
4806;SDS011;2417;52.482;13.432;2023-02-28T08:59:23;5.70;;;2.90;;
4806;SDS011;2417;52.482;13.432;2023-02-28T09:01:52;8.30;;;3.30;;
4806;SDS011;2417;52.482;13.432;2023-02-28T09:04:20;7.27;;;3.00;;
4806;SDS011;2417;52.482;13.432;2023-02-28T09:06:51;9.70;;;3.87;;
4806;SDS011;2417;52.482;13.432;2023-02-28T09:09:19;11.97;;;4.97;;
4806;SDS011;2417;52.482;13.432;2023-02-28T09:11:47;8.23;;;2.30;;
4806;SDS011;2417;52.482;13.432;2023-02-28T09:14:15;9.53;;;4.30;;
4806;SDS011;2417;52.482;13.432;2023-02-28T09:16:43;11.03;;;4.47;;
4806;SDS011;2417;52.482;13.432;2023-02-28T09:19:13;9.27;;;3.60;;
4806;SDS011;2417;52.482;13.432;2023-02-28T09:21:40;9.07;;;3.60;;
4806;SDS011;2417;52.482;13.432;2023-02-28T09:24:08;6.47;;;2.90;;
4806;SDS011;2417;52.482;13.432;2023-02-28T09:26:38;11.13;;;3.20;;
4806;SDS011;2417;52.482;13.432;2023-02-28T09:29:21;13.00;;;3.50;;
4806;SDS011;2417;52.482;13.432;2023-02-28T09:31:49;7.53;;;2.97;;
4806;SDS011;2417;52.482;13.432;2023-02-28T09:34:18;8.70;;;2.27;;
4806;SDS011;2417;52.482;13.432;2023-02-28T09:36:46;8.20;;;2.77;;
4806;SDS011;2417;52.482;13.432;2023-02-28T09:39:15;6.77;;;3.03;;
4806;SDS011;2417;52.482;13.432;2023-02-28T09:41:45;7.27;;;2.90;;
4806;SDS011;2417;52.482;13.432;2023-02-28T09:44:18;6.63;;;3.07;;
4806;SDS011;2417;52.482;13.432;2023-02-28T09:46:48;8.97;;;3.20;;
4806;SDS011;2417;52.482;13.432;2023-02-28T09:49:22;5.63;;;2.13;;
4806;SDS011;2417;52.482;13.432;2023-02-28T09:51:53;5.03;;;2.30;;
4806;SDS011;2417;52.482;13.432;2023-02-28T09:54:24;8.83;;;3.13;;
4806;SDS011;2417;52.482;13.432;2023-02-28T09:56:53;9.30;;;3.10;;
4806;SDS011;2417;52.482;13.432;2023-02-28T09:59:28;8.80;;;4.30;;
4806;SDS011;2417;52.482;13.432;2023-02-28T10:01:57;11.13;;;3.33;;
4806;SDS011;2417;52.482;13.432;2023-02-28T10:04:41;7.80;;;2.70;;
4806;SDS011;2417;52.482;13.432;2023-02-28T10:07:17;10.97;;;3.23;;
4806;SDS011;2417;52.482;13.432;2023-02-28T10:09:48;13.80;;;3.57;;
4806;SDS011;2417;52.482;13.432;2023-02-28T10:12:18;8.60;;;3.37;;
4806;SDS011;2417;52.482;13.432;2023-02-28T10:14:47;5.10;;;2.43;;
4806;SDS011;2417;52.482;13.432;2023-02-28T10:17:17;8.97;;;3.90;;
4806;SDS011;2417;52.482;13.432;2023-02-28T10:19:50;7.10;;;3.00;;
4806;SDS011;2417;52.482;13.432;2023-02-28T10:22:22;5.37;;;2.13;;
4806;SDS011;2417;52.482;13.432;2023-02-28T10:24:52;7.20;;;2.50;;
4806;SDS011;2417;52.482;13.432;2023-02-28T10:27:23;9.67;;;2.70;;
4806;SDS011;2417;52.482;13.432;2023-02-28T10:29:51;9.93;;;4.30;;
4806;SDS011;2417;52.482;13.432;2023-02-28T10:32:21;9.93;;;4.37;;
4806;SDS011;2417;52.482;13.432;2023-02-28T10:34:52;7.53;;;2.93;;
4806;SDS011;2417;52.482;13.432;2023-02-28T10:37:21;9.67;;;2.23;;
4806;SDS011;2417;52.482;13.432;2023-02-28T10:39:49;6.47;;;3.00;;
4806;SDS011;2417;52.482;13.432;2023-02-28T10:42:22;8.53;;;3.00;;
4806;SDS011;2417;52.482;13.432;2023-02-28T10:47:48;8.37;;;3.90;;
4806;SDS011;2417;52.482;13.432;2023-02-28T10:50:28;6.10;;;2.40;;
4806;SDS011;2417;52.482;13.432;2023-02-28T10:52:57;7.67;;;3.50;;
4806;SDS011;2417;52.482;13.432;2023-02-28T10:55:32;8.57;;;3.43;;
4806;SDS011;2417;52.482;13.432;2023-02-28T10:58:00;7.00;;;2.50;;
4806;SDS011;2417;52.482;13.432;2023-02-28T11:00:32;10.60;;;3.50;;
4806;SDS011;2417;52.482;13.432;2023-02-28T11:03:00;6.73;;;3.47;;
4806;SDS011;2417;52.482;13.432;2023-02-28T11:05:30;8.90;;;3.40;;
4806;SDS011;2417;52.482;13.432;2023-02-28T11:07:59;7.03;;;3.47;;
4806;SDS011;2417;52.482;13.432;2023-02-28T11:10:31;11.00;;;5.00;;
4806;SDS011;2417;52.482;13.432;2023-02-28T11:13:01;6.40;;;3.20;;
4806;SDS011;2417;52.482;13.432;2023-02-28T11:15:30;9.03;;;4.17;;
4806;SDS011;2417;52.482;13.432;2023-02-28T11:17:59;11.30;;;3.93;;
4806;SDS011;2417;52.482;13.432;2023-02-28T11:20:30;7.40;;;3.50;;
4806;SDS011;2417;52.482;13.432;2023-02-28T11:23:00;11.00;;;4.90;;
4806;SDS011;2417;52.482;13.432;2023-02-28T11:25:29;10.83;;;4.30;;
4806;SDS011;2417;52.482;13.432;2023-02-28T11:27:58;7.77;;;3.50;;
4806;SDS011;2417;52.482;13.432;2023-02-28T11:30:32;8.67;;;3.90;;
4806;SDS011;2417;52.482;13.432;2023-02-28T11:33:10;15.93;;;5.93;;
4806;SDS011;2417;52.482;13.432;2023-02-28T11:35:47;6.90;;;3.40;;
4806;SDS011;2417;52.482;13.432;2023-02-28T11:38:15;10.57;;;5.00;;
4806;SDS011;2417;52.482;13.432;2023-02-28T11:40:46;19.80;;;6.40;;
4806;SDS011;2417;52.482;13.432;2023-02-28T11:43:22;11.47;;;4.30;;
4806;SDS011;2417;52.482;13.432;2023-02-28T11:45:59;9.87;;;4.00;;
4806;SDS011;2417;52.482;13.432;2023-02-28T11:48:32;8.10;;;4.00;;
4806;SDS011;2417;52.482;13.432;2023-02-28T11:51:06;13.40;;;5.90;;
4806;SDS011;2417;52.482;13.432;2023-02-28T11:53:44;18.30;;;9.00;;
4806;SDS011;2417;52.482;13.432;2023-02-28T11:56:17;29.13;;;5.67;;
4806;SDS011;2417;52.482;13.432;2023-02-28T11:58:49;16.57;;;6.70;;
4806;SDS011;2417;52.482;13.432;2023-02-28T12:04:04;17.47;;;7.23;;
4806;SDS011;2417;52.482;13.432;2023-02-28T12:06:40;12.37;;;4.50;;
4806;SDS011;2417;52.482;13.432;2023-02-28T12:09:13;10.33;;;5.10;;
4806;SDS011;2417;52.482;13.432;2023-02-28T12:11:48;17.63;;;6.80;;
4806;SDS011;2417;52.482;13.432;2023-02-28T12:14:25;11.20;;;5.50;;
4806;SDS011;2417;52.482;13.432;2023-02-28T12:17:00;13.70;;;5.87;;
4806;SDS011;2417;52.482;13.432;2023-02-28T12:19:35;11.87;;;5.67;;
4806;SDS011;2417;52.482;13.432;2023-02-28T12:22:19;9.60;;;4.50;;
4806;SDS011;2417;52.482;13.432;2023-02-28T12:27:39;9.20;;;4.40;;
4806;SDS011;2417;52.482;13.432;2023-02-28T12:30:13;11.50;;;4.83;;
4806;SDS011;2417;52.482;13.432;2023-02-28T12:32:45;11.40;;;4.47;;
4806;SDS011;2417;52.482;13.432;2023-02-28T12:35:16;10.57;;;4.67;;
4806;SDS011;2417;52.482;13.432;2023-02-28T12:37:49;12.60;;;5.77;;
4806;SDS011;2417;52.482;13.432;2023-02-28T12:40:22;16.60;;;6.77;;
4806;SDS011;2417;52.482;13.432;2023-02-28T12:42:51;9.63;;;5.07;;
4806;SDS011;2417;52.482;13.432;2023-02-28T12:45:19;13.07;;;5.80;;
4806;SDS011;2417;52.482;13.432;2023-02-28T12:47:49;8.93;;;3.80;;
4806;SDS011;2417;52.482;13.432;2023-02-28T12:50:18;8.47;;;3.77;;
4806;SDS011;2417;52.482;13.432;2023-02-28T12:52:51;12.47;;;5.50;;
4806;SDS011;2417;52.482;13.432;2023-02-28T12:55:23;9.83;;;5.30;;
4806;SDS011;2417;52.482;13.432;2023-02-28T12:57:57;11.00;;;4.47;;
4806;SDS011;2417;52.482;13.432;2023-02-28T13:00:29;9.03;;;3.77;;
4806;SDS011;2417;52.482;13.432;2023-02-28T13:03:06;8.47;;;3.13;;
4806;SDS011;2417;52.482;13.432;2023-02-28T13:05:46;8.13;;;3.87;;
4806;SDS011;2417;52.482;13.432;2023-02-28T13:10:58;9.57;;;4.17;;
4806;SDS011;2417;52.482;13.432;2023-02-28T13:13:29;13.03;;;3.80;;
4806;SDS011;2417;52.482;13.432;2023-02-28T13:16:02;7.63;;;3.83;;
4806;SDS011;2417;52.482;13.432;2023-02-28T13:18:31;17.97;;;4.30;;
4806;SDS011;2417;52.482;13.432;2023-02-28T13:21:00;26.93;;;12.40;;
4806;SDS011;2417;52.482;13.432;2023-02-28T13:23:55;19.40;;;6.20;;
4806;SDS011;2417;52.482;13.432;2023-02-28T13:29:28;9.53;;;3.43;;
4806;SDS011;2417;52.482;13.432;2023-02-28T13:34:49;8.90;;;3.50;;
4806;SDS011;2417;52.482;13.432;2023-02-28T13:37:35;9.77;;;3.93;;
4806;SDS011;2417;52.482;13.432;2023-02-28T13:42:49;6.43;;;3.03;;
4806;SDS011;2417;52.482;13.432;2023-02-28T13:48:16;15.53;;;4.23;;
4806;SDS011;2417;52.482;13.432;2023-02-28T13:50:45;11.33;;;5.10;;
4806;SDS011;2417;52.482;13.432;2023-02-28T13:55:57;10.50;;;3.93;;
4806;SDS011;2417;52.482;13.432;2023-02-28T13:58:35;10.23;;;4.10;;
4806;SDS011;2417;52.482;13.432;2023-02-28T14:01:10;10.47;;;4.40;;
4806;SDS011;2417;52.482;13.432;2023-02-28T14:03:44;8.53;;;3.97;;
4806;SDS011;2417;52.482;13.432;2023-02-28T14:06:18;15.27;;;5.57;;
4806;SDS011;2417;52.482;13.432;2023-02-28T14:08:52;24.33;;;11.60;;
4806;SDS011;2417;52.482;13.432;2023-02-28T14:11:26;10.60;;;5.30;;
4806;SDS011;2417;52.482;13.432;2023-02-28T14:13:54;10.57;;;4.87;;
4806;SDS011;2417;52.482;13.432;2023-02-28T14:16:23;10.87;;;4.43;;
4806;SDS011;2417;52.482;13.432;2023-02-28T14:18:56;9.50;;;3.53;;
4806;SDS011;2417;52.482;13.432;2023-02-28T14:21:26;11.03;;;4.57;;
4806;SDS011;2417;52.482;13.432;2023-02-28T14:24:04;9.67;;;4.30;;
4806;SDS011;2417;52.482;13.432;2023-02-28T14:26:51;8.20;;;4.03;;
4806;SDS011;2417;52.482;13.432;2023-02-28T14:32:10;9.53;;;4.20;;
4806;SDS011;2417;52.482;13.432;2023-02-28T14:34:44;12.47;;;5.50;;
4806;SDS011;2417;52.482;13.432;2023-02-28T14:37:16;20.07;;;9.87;;
4806;SDS011;2417;52.482;13.432;2023-02-28T14:39:46;10.23;;;5.03;;
4806;SDS011;2417;52.482;13.432;2023-02-28T14:42:27;8.50;;;4.70;;
4806;SDS011;2417;52.482;13.432;2023-02-28T14:44:55;8.93;;;3.80;;
4806;SDS011;2417;52.482;13.432;2023-02-28T14:47:25;9.00;;;3.80;;
4806;SDS011;2417;52.482;13.432;2023-02-28T14:49:56;9.47;;;4.50;;
4806;SDS011;2417;52.482;13.432;2023-02-28T14:52:26;8.17;;;3.87;;
4806;SDS011;2417;52.482;13.432;2023-02-28T14:54:56;12.40;;;4.70;;
4806;SDS011;2417;52.482;13.432;2023-02-28T14:57:25;13.00;;;6.37;;
4806;SDS011;2417;52.482;13.432;2023-02-28T14:59:57;17.10;;;7.43;;
4806;SDS011;2417;52.482;13.432;2023-02-28T15:02:25;22.53;;;10.10;;
4806;SDS011;2417;52.482;13.432;2023-02-28T15:04:54;13.93;;;6.63;;
4806;SDS011;2417;52.482;13.432;2023-02-28T15:07:24;11.10;;;5.40;;
4806;SDS011;2417;52.482;13.432;2023-02-28T15:10:09;9.63;;;4.50;;
4806;SDS011;2417;52.482;13.432;2023-02-28T15:12:41;9.67;;;4.67;;
4806;SDS011;2417;52.482;13.432;2023-02-28T15:15:16;10.57;;;5.10;;
4806;SDS011;2417;52.482;13.432;2023-02-28T15:17:45;9.40;;;4.40;;
4806;SDS011;2417;52.482;13.432;2023-02-28T15:20:14;8.30;;;4.10;;
4806;SDS011;2417;52.482;13.432;2023-02-28T15:22:44;9.00;;;5.17;;
4806;SDS011;2417;52.482;13.432;2023-02-28T15:25:14;10.73;;;5.47;;
4806;SDS011;2417;52.482;13.432;2023-02-28T15:27:44;11.30;;;5.83;;
4806;SDS011;2417;52.482;13.432;2023-02-28T15:30:15;11.90;;;5.13;;
4806;SDS011;2417;52.482;13.432;2023-02-28T15:32:43;14.47;;;5.60;;
4806;SDS011;2417;52.482;13.432;2023-02-28T15:35:18;10.23;;;5.10;;
4806;SDS011;2417;52.482;13.432;2023-02-28T15:37:54;9.43;;;4.80;;
4806;SDS011;2417;52.482;13.432;2023-02-28T15:40:23;9.77;;;4.83;;
4806;SDS011;2417;52.482;13.432;2023-02-28T15:42:57;9.80;;;5.20;;
4806;SDS011;2417;52.482;13.432;2023-02-28T15:45:27;10.27;;;4.57;;
4806;SDS011;2417;52.482;13.432;2023-02-28T15:47:55;8.83;;;4.87;;
4806;SDS011;2417;52.482;13.432;2023-02-28T15:50:34;22.40;;;10.30;;